createdAt,value
2016-09-27T00:00:12.488Z,0
2016-09-27T00:01:12.510Z,0
2016-09-27T00:02:12.519Z,0
2016-09-27T00:03:12.541Z,0
2016-09-27T00:04:12.570Z,0
2016-09-27T00:05:12.582Z,0
2016-09-27T00:06:12.905Z,0
2016-09-27T00:07:12.620Z,0
2016-09-27T00:08:12.642Z,0
2016-09-27T00:09:12.657Z,0
2016-09-27T00:10:12.676Z,0
2016-09-27T00:11:12.698Z,0
2016-09-27T00:12:12.714Z,0
2016-09-27T00:13:12.722Z,0
2016-09-27T00:14:12.744Z,0
2016-09-27T00:15:12.770Z,0
2016-09-27T00:16:12.778Z,0
2016-09-27T00:17:12.803Z,0
2016-09-27T00:18:12.827Z,0
2016-09-27T00:19:12.835Z,0
2016-09-27T00:20:12.890Z,0
2016-09-27T00:21:12.880Z,0
2016-09-27T00:22:12.891Z,0
2016-09-27T00:23:12.908Z,0
2016-09-27T00:24:12.926Z,0
2016-09-27T00:25:12.947Z,0
2016-09-27T00:26:12.976Z,0
2016-09-27T00:27:12.983Z,0
2016-09-27T00:28:13.009Z,0
2016-09-27T00:29:13.027Z,0
2016-09-27T00:30:13.018Z,0
2016-09-27T00:31:13.076Z,0
2016-09-27T00:32:13.083Z,0
2016-09-27T00:33:13.093Z,0
2016-09-27T00:34:13.131Z,0
2016-09-27T00:35:13.133Z,0
2016-09-27T00:36:13.154Z,0
2016-09-27T00:37:13.158Z,0
2016-09-27T00:38:13.191Z,0
2016-09-27T00:39:13.207Z,0
2016-09-27T00:40:13.238Z,0
2016-09-27T00:41:13.250Z,0
2016-09-27T00:42:13.258Z,0
2016-09-27T00:43:13.275Z,0
2016-09-27T00:44:13.293Z,0
2016-09-27T00:45:13.316Z,0
2016-09-27T00:46:13.341Z,0
2016-09-27T00:47:13.350Z,0
2016-09-27T00:48:13.373Z,0
2016-09-27T00:49:13.395Z,0
2016-09-27T00:50:13.423Z,0
2016-09-27T00:51:13.431Z,0
2016-09-27T00:52:13.440Z,0
2016-09-27T00:53:13.464Z,0
2016-09-27T00:54:13.489Z,0
2016-09-27T00:55:13.505Z,0
2016-09-27T00:56:13.533Z,0
2016-09-27T00:57:13.531Z,0
2016-09-27T00:58:13.557Z,0
2016-09-27T00:59:13.577Z,0
2016-09-27T01:00:13.584Z,0
2016-09-27T01:01:13.596Z,0
2016-09-27T01:02:13.639Z,0
2016-09-27T01:03:13.673Z,0
2016-09-27T01:04:13.675Z,0
2016-09-27T01:05:13.680Z,0
2016-09-27T01:06:13.702Z,0
2016-09-27T01:07:13.721Z,0
2016-09-27T01:08:13.746Z,0
2016-09-27T01:09:13.740Z,0
2016-09-27T01:10:13.774Z,0
2016-09-27T01:11:13.766Z,0
2016-09-27T01:12:13.809Z,0
2016-09-27T01:13:13.832Z,0
2016-09-27T01:14:13.865Z,0
2016-09-27T01:15:14.193Z,0
2016-09-27T01:16:14.191Z,0
2016-09-27T01:17:13.907Z,0
2016-09-27T01:18:13.926Z,0
2016-09-27T01:19:13.948Z,0
2016-09-27T01:20:14.298Z,0
2016-09-27T01:21:13.967Z,0
2016-09-27T01:22:13.996Z,0
2016-09-27T01:23:14.005Z,0
2016-09-27T01:24:14.028Z,0
2016-09-27T01:25:14.031Z,0
2016-09-27T01:26:14.067Z,0
2016-09-27T01:27:14.083Z,0
2016-09-27T01:28:14.103Z,0
2016-09-27T01:29:14.112Z,0
2016-09-27T01:30:14.133Z,0
2016-09-27T01:31:14.157Z,0
2016-09-27T01:32:14.166Z,0
2016-09-27T01:33:14.196Z,0
2016-09-27T01:34:14.228Z,0
2016-09-27T01:35:14.225Z,0
2016-09-27T01:36:14.244Z,0
2016-09-27T01:37:14.246Z,0
2016-09-27T01:38:14.272Z,0
2016-09-27T01:39:14.292Z,0
2016-09-27T01:40:14.316Z,0
2016-09-27T01:41:14.339Z,0
2016-09-27T01:42:14.355Z,0
2016-09-27T01:43:14.367Z,0
2016-09-27T01:44:14.389Z,0
2016-09-27T01:45:14.419Z,0
2016-09-27T01:46:14.436Z,0
2016-09-27T01:47:14.442Z,0
2016-09-27T01:48:14.458Z,0
2016-09-27T01:49:14.469Z,0
2016-09-27T01:50:14.492Z,0
2016-09-27T01:51:14.510Z,0
2016-09-27T01:52:14.523Z,0
2016-09-27T01:53:14.557Z,0
2016-09-27T01:54:14.591Z,0
2016-09-27T01:55:14.603Z,0
2016-09-27T01:56:14.966Z,0
2016-09-27T01:57:14.620Z,0
2016-09-27T01:58:14.651Z,0
2016-09-27T01:59:14.664Z,0
2016-09-27T02:00:14.691Z,0
2016-09-27T02:01:14.703Z,0
2016-09-27T02:02:14.719Z,0
2016-09-27T02:03:14.740Z,0
2016-09-27T02:04:14.778Z,0
2016-09-27T02:05:14.758Z,0
2016-09-27T02:06:15.113Z,0
2016-09-27T02:07:14.796Z,0
2016-09-27T02:08:14.832Z,0
2016-09-27T02:09:14.833Z,0
2016-09-27T02:10:14.866Z,0
2016-09-27T02:11:14.855Z,0
2016-09-27T02:12:14.892Z,0
2016-09-27T02:13:14.925Z,0
2016-09-27T02:14:14.944Z,0
2016-09-27T02:15:14.960Z,0
2016-09-27T02:16:14.974Z,0
2016-09-27T02:17:14.994Z,0
2016-09-27T02:18:15.032Z,0
2016-09-27T02:19:15.028Z,0
2016-09-27T02:20:15.062Z,0
2016-09-27T02:21:15.062Z,0
2016-09-27T02:22:15.085Z,0
2016-09-27T02:23:15.100Z,0
2016-09-27T02:24:15.118Z,0
2016-09-27T02:25:15.157Z,0
2016-09-27T02:26:15.149Z,0
2016-09-27T02:27:15.173Z,0
2016-09-27T02:28:15.216Z,0
2016-09-27T02:29:15.204Z,0
2016-09-27T02:30:15.221Z,0
2016-09-27T02:31:15.244Z,0
2016-09-27T02:32:15.271Z,0
2016-09-27T02:33:15.281Z,0
2016-09-27T02:34:15.308Z,0
2016-09-27T02:35:15.321Z,0
2016-09-27T02:36:15.351Z,0
2016-09-27T02:37:15.344Z,0
2016-09-27T02:38:15.398Z,0
2016-09-27T02:39:15.395Z,0
2016-09-27T02:40:15.755Z,0
2016-09-27T02:41:15.421Z,0
2016-09-27T02:42:15.474Z,0
2016-09-27T02:43:15.463Z,0
2016-09-27T02:44:15.475Z,0
2016-09-27T02:45:15.523Z,0
2016-09-27T02:46:15.539Z,0
2016-09-27T02:47:15.546Z,0
2016-09-27T02:48:15.562Z,0
2016-09-27T02:49:15.572Z,0
2016-09-27T02:50:15.589Z,0
2016-09-27T02:51:15.631Z,0
2016-09-27T02:52:15.631Z,0
2016-09-27T02:53:15.653Z,0
2016-09-27T02:54:15.676Z,0
2016-09-27T02:55:15.683Z,0
2016-09-27T02:56:15.708Z,0
2016-09-27T02:57:15.722Z,0
2016-09-27T02:58:15.752Z,0
2016-09-27T02:59:15.744Z,0
2016-09-27T03:00:15.782Z,0
2016-09-27T03:01:15.797Z,0
2016-09-27T03:02:15.804Z,0
2016-09-27T03:03:15.829Z,0
2016-09-27T03:04:15.850Z,0
2016-09-27T03:05:15.850Z,0
2016-09-27T03:06:15.896Z,0
2016-09-27T03:07:15.913Z,0
2016-09-27T03:08:15.928Z,0
2016-09-27T03:09:15.957Z,0
2016-09-27T03:10:15.965Z,0
2016-09-27T03:11:15.987Z,0
2016-09-27T03:12:15.989Z,0
2016-09-27T03:13:16.020Z,0
2016-09-27T03:14:16.040Z,0
2016-09-27T03:15:16.053Z,0
2016-09-27T03:16:16.072Z,0
2016-09-27T03:17:16.089Z,0
2016-09-27T03:18:16.092Z,0
2016-09-27T03:19:16.128Z,0
2016-09-27T03:20:16.148Z,0
2016-09-27T03:21:16.155Z,0
2016-09-27T03:22:16.186Z,0
2016-09-27T03:23:16.200Z,0
2016-09-27T03:24:16.213Z,0
2016-09-27T03:25:16.235Z,0
2016-09-27T03:26:16.273Z,0
2016-09-27T03:27:16.257Z,0
2016-09-27T03:28:16.309Z,0
2016-09-27T03:29:16.293Z,0
2016-09-27T03:30:16.329Z,0
2016-09-27T03:31:16.344Z,0
2016-09-27T03:32:16.362Z,0
2016-09-27T03:33:16.377Z,0
2016-09-27T03:34:16.409Z,0
2016-09-27T03:35:16.411Z,0
2016-09-27T03:36:16.431Z,0
2016-09-27T03:37:16.446Z,0
2016-09-27T03:38:16.469Z,0
2016-09-27T03:39:16.488Z,0
2016-09-27T03:40:16.499Z,0
2016-09-27T03:41:16.526Z,0
2016-09-27T03:42:16.551Z,0
2016-09-27T03:43:16.561Z,0
2016-09-27T03:44:16.573Z,0
2016-09-27T03:45:16.596Z,0
2016-09-27T03:46:16.619Z,0
2016-09-27T03:47:16.625Z,0
2016-09-27T03:48:16.646Z,0
2016-09-27T03:49:16.666Z,0
2016-09-27T03:50:16.699Z,0
2016-09-27T03:51:16.714Z,0
2016-09-27T03:52:16.720Z,0
2016-09-27T03:53:16.740Z,0
2016-09-27T03:54:16.761Z,0
2016-09-27T03:55:16.780Z,0
2016-09-27T03:56:16.814Z,0
2016-09-27T03:57:16.825Z,0
2016-09-27T03:58:16.832Z,0
2016-09-27T03:59:16.848Z,0
2016-09-27T04:01:46.568Z,0
2016-09-27T04:02:16.901Z,0
2016-09-27T04:03:16.935Z,0
2016-09-27T04:04:16.939Z,0
2016-09-27T04:05:16.970Z,0
2016-09-27T04:06:16.990Z,0
2016-09-27T04:07:16.977Z,0
2016-09-27T04:08:17.026Z,0
2016-09-27T04:09:17.028Z,0
2016-09-27T04:10:17.055Z,0
2016-09-27T04:11:17.078Z,0
2016-09-27T04:12:17.100Z,0
2016-09-27T04:13:17.103Z,0
2016-09-27T04:14:17.144Z,0
2016-09-27T04:15:17.145Z,0
2016-09-27T04:16:17.156Z,0
2016-09-27T04:17:17.172Z,0
2016-09-27T04:18:17.208Z,0
2016-09-27T04:19:17.225Z,0
2016-09-27T04:20:17.227Z,0
2016-09-27T04:21:17.250Z,0
2016-09-27T04:22:17.244Z,0
2016-09-27T04:23:17.298Z,0
2016-09-27T04:24:17.307Z,0
2016-09-27T04:25:17.323Z,0
2016-09-27T04:26:17.340Z,0
2016-09-27T04:27:17.365Z,0
2016-09-27T04:28:17.363Z,0
2016-09-27T04:29:17.399Z,0
2016-09-27T04:30:17.422Z,0
2016-09-27T04:31:17.421Z,0
2016-09-27T04:32:17.428Z,0
2016-09-27T04:33:17.465Z,0
2016-09-27T04:34:17.504Z,0
2016-09-27T04:35:17.500Z,0
2016-09-27T04:36:17.512Z,0
2016-09-27T04:37:17.524Z,0
2016-09-27T04:38:17.559Z,0
2016-09-27T04:39:17.580Z,0
2016-09-27T04:40:17.589Z,0
2016-09-27T04:41:17.622Z,0
2016-09-27T04:42:17.611Z,0
2016-09-27T04:43:17.637Z,0
2016-09-27T04:44:17.670Z,0
2016-09-27T04:45:17.689Z,0
2016-09-27T04:46:17.689Z,0
2016-09-27T04:47:17.715Z,4
2016-09-27T04:48:17.743Z,4
2016-09-27T04:49:17.765Z,4
2016-09-27T04:50:17.778Z,0
2016-09-27T04:51:17.792Z,0
2016-09-27T04:52:17.815Z,4
2016-09-27T04:53:17.826Z,4
2016-09-27T04:54:17.856Z,4
2016-09-27T04:55:17.865Z,4
2016-09-27T04:56:17.872Z,4
2016-09-27T04:57:17.907Z,8
2016-09-27T04:58:17.917Z,8
2016-09-27T04:59:17.937Z,8
2016-09-27T05:00:17.961Z,12
2016-09-27T05:01:17.977Z,12
2016-09-27T05:02:18.050Z,12
2016-09-27T05:03:17.995Z,16
2016-09-27T05:04:18.033Z,16
2016-09-27T05:05:18.041Z,24
2016-09-27T05:06:18.049Z,24
2016-09-27T05:07:18.094Z,28
2016-09-27T05:08:18.117Z,32
2016-09-27T05:09:18.132Z,36
2016-09-27T05:10:18.141Z,36
2016-09-27T05:11:18.150Z,40
2016-09-27T05:12:18.190Z,44
2016-09-27T05:13:18.194Z,48
2016-09-27T05:14:18.207Z,56
2016-09-27T05:15:18.205Z,60
2016-09-27T05:16:18.275Z,68
2016-09-27T05:17:18.261Z,72
2016-09-27T05:18:18.291Z,80
2016-09-27T05:19:18.305Z,88
2016-09-27T05:20:18.327Z,100
2016-09-27T05:21:18.331Z,112
2016-09-27T05:22:18.360Z,120
2016-09-27T05:23:18.368Z,128
2016-09-27T05:24:18.406Z,140
2016-09-27T05:25:18.399Z,152
2016-09-27T05:26:18.438Z,172
2016-09-27T05:27:18.451Z,188
2016-09-27T05:28:18.473Z,208
2016-09-27T05:29:18.475Z,228
2016-09-27T05:30:18.510Z,248
2016-09-27T05:31:18.527Z,268
2016-09-27T05:32:18.539Z,288
2016-09-27T05:33:18.540Z,312
2016-09-27T05:34:18.578Z,336
2016-09-27T05:35:18.602Z,360
2016-09-27T05:36:18.608Z,380
2016-09-27T05:37:18.616Z,400
2016-09-27T05:38:18.671Z,424
2016-09-27T05:39:18.671Z,448
2016-09-27T05:40:18.692Z,480
2016-09-27T05:41:18.702Z,508
2016-09-27T05:42:18.723Z,544
2016-09-27T05:43:18.743Z,580
2016-09-27T05:44:18.757Z,620
2016-09-27T05:45:18.777Z,664
2016-09-27T05:46:18.786Z,704
2016-09-27T05:47:18.826Z,756
2016-09-27T05:48:18.861Z,804
2016-09-27T05:49:18.848Z,860
2016-09-27T05:50:18.859Z,908
2016-09-27T05:51:18.862Z,952
2016-09-27T05:52:18.911Z,1012
2016-09-27T05:53:18.928Z,1092
2016-09-27T05:54:18.962Z,1156
2016-09-27T05:55:18.977Z,1216
2016-09-27T05:56:18.988Z,1276
2016-09-27T05:57:18.998Z,1332
2016-09-27T05:58:19.016Z,1384
2016-09-27T05:59:19.027Z,1432
2016-09-27T06:00:19.056Z,1472
2016-09-27T06:01:19.069Z,1516
2016-09-27T06:02:19.098Z,1556
2016-09-27T06:03:19.106Z,1596
2016-09-27T06:04:19.134Z,1632
2016-09-27T06:05:19.158Z,1664
2016-09-27T06:06:19.150Z,1684
2016-09-27T06:07:19.182Z,1700
2016-09-27T06:08:19.205Z,1716
2016-09-27T06:09:19.228Z,1736
2016-09-27T06:10:19.248Z,1752
2016-09-27T06:11:19.264Z,1780
2016-09-27T06:12:19.298Z,1804
2016-09-27T06:13:19.300Z,1820
2016-09-27T06:14:19.310Z,1840
2016-09-27T06:15:19.346Z,1868
2016-09-27T06:16:19.350Z,1876
2016-09-27T06:17:19.412Z,1904
2016-09-27T06:18:19.398Z,1976
2016-09-27T06:19:19.393Z,2068
2016-09-27T06:20:19.431Z,2148
2016-09-27T06:21:19.439Z,2200
2016-09-27T06:22:19.461Z,2216
2016-09-27T06:23:19.482Z,2248
2016-09-27T06:24:19.496Z,2340
2016-09-27T06:25:19.507Z,2504
2016-09-27T06:26:19.542Z,2684
2016-09-27T06:27:19.553Z,2772
2016-09-27T06:28:19.587Z,2760
2016-09-27T06:29:19.586Z,2896
2016-09-27T06:30:19.652Z,3016
2016-09-27T06:31:19.614Z,3064
2016-09-27T06:32:19.693Z,3100
2016-09-27T06:33:24.692Z,3140
2016-09-27T06:34:19.675Z,3172
2016-09-27T06:35:19.698Z,3216
2016-09-27T06:36:19.698Z,3264
2016-09-27T06:37:32.479Z,3320
2016-09-27T06:38:19.737Z,3364
2016-09-27T06:39:19.760Z,3416
2016-09-27T06:40:19.787Z,3476
2016-09-27T06:41:19.802Z,3524
2016-09-27T06:42:19.823Z,3556
2016-09-27T06:43:19.848Z,3580
2016-09-27T06:44:19.852Z,3596
2016-09-27T06:45:19.913Z,3624
2016-09-27T06:46:19.900Z,3632
2016-09-27T06:47:19.907Z,3624
2016-09-27T06:48:19.927Z,3656
2016-09-27T06:49:19.948Z,3688
2016-09-27T06:50:19.986Z,3724
2016-09-27T06:51:19.999Z,3748
2016-09-27T06:52:20.024Z,3784
2016-09-27T06:53:20.035Z,3840
2016-09-27T06:54:20.049Z,3916
2016-09-27T06:55:20.062Z,4012
2016-09-27T06:56:20.375Z,4056
2016-09-27T06:57:20.107Z,4132
2016-09-27T06:58:20.140Z,4152
2016-09-27T06:59:20.146Z,4180
2016-09-27T07:00:20.165Z,4240
2016-09-27T07:01:20.200Z,4272
2016-09-27T07:02:20.198Z,4292
2016-09-27T07:03:20.224Z,4300
2016-09-27T07:04:20.247Z,4316
2016-09-27T07:05:20.256Z,4332
2016-09-27T07:06:20.289Z,4376
2016-09-27T07:07:20.301Z,4416
2016-09-27T07:08:20.311Z,4468
2016-09-27T07:09:20.335Z,4508
2016-09-27T07:10:30.662Z,4572
2016-09-27T07:11:20.375Z,4608
2016-09-27T07:12:20.406Z,4656
2016-09-27T07:13:20.420Z,4692
2016-09-27T07:14:20.438Z,4720
2016-09-27T07:15:20.455Z,4448
2016-09-27T07:16:20.475Z,4632
2016-09-27T07:17:20.495Z,4796
2016-09-27T07:18:20.531Z,4824
2016-09-27T07:19:20.532Z,4856
2016-09-27T07:20:20.584Z,4828
2016-09-27T07:21:20.590Z,4844
2016-09-27T07:22:20.606Z,4856
2016-09-27T07:23:20.624Z,4884
2016-09-27T07:24:20.666Z,4952
2016-09-27T07:25:20.657Z,5016
2016-09-27T07:26:20.687Z,5076
2016-09-27T07:27:20.695Z,5140
2016-09-27T07:28:20.715Z,5196
2016-09-27T07:29:20.737Z,5244
2016-09-27T07:30:20.774Z,5276
2016-09-27T07:31:20.786Z,5304
2016-09-27T07:32:20.793Z,5332
2016-09-27T07:33:20.825Z,5352
2016-09-27T07:34:20.853Z,5360
2016-09-27T07:35:20.867Z,5364
2016-09-27T07:36:20.890Z,5404
2016-09-27T07:37:20.912Z,5424
2016-09-27T07:38:20.927Z,5404
2016-09-27T07:39:20.946Z,5220
2016-09-27T07:40:20.966Z,5268
2016-09-27T07:41:20.977Z,5196
2016-09-27T07:42:21.013Z,5248
2016-09-27T07:43:21.022Z,5072
2016-09-27T07:44:21.044Z,5272
2016-09-27T07:45:21.064Z,5176
2016-09-27T07:46:21.089Z,5268
2016-09-27T07:47:21.114Z,5484
2016-09-27T07:48:21.128Z,5720
2016-09-27T07:49:21.148Z,5056
2016-09-27T07:50:21.159Z,4240
2016-09-27T07:51:21.185Z,4424
2016-09-27T07:52:21.229Z,5220
2016-09-27T07:53:21.224Z,5028
2016-09-27T07:54:21.254Z,5536
2016-09-27T07:55:21.263Z,4172
2016-09-27T07:56:21.297Z,4476
2016-09-27T07:57:21.312Z,4296
2016-09-27T07:58:21.324Z,5196
2016-09-27T07:59:21.351Z,5784
2016-09-27T08:00:21.366Z,5832
2016-09-27T08:01:21.387Z,5812
2016-09-27T08:02:21.413Z,5836
2016-09-27T08:03:21.441Z,5860
2016-09-27T08:04:21.457Z,5700
2016-09-27T08:05:21.481Z,5748
2016-09-27T08:06:21.507Z,5864
2016-09-27T08:07:21.518Z,5856
2016-09-27T08:08:21.538Z,5904
2016-09-27T08:09:21.564Z,5900
2016-09-27T08:10:21.594Z,5928
2016-09-27T08:11:21.601Z,5932
2016-09-27T08:12:21.637Z,5936
2016-09-27T08:13:21.646Z,5960
2016-09-27T08:14:21.658Z,5964
2016-09-27T08:15:21.681Z,5972
2016-09-27T08:16:21.706Z,5988
2016-09-27T08:17:21.729Z,6012
2016-09-27T08:18:21.748Z,6024
2016-09-27T08:19:21.767Z,6036
2016-09-27T08:20:21.800Z,6044
2016-09-27T08:21:22.150Z,6040
2016-09-27T08:22:21.825Z,6056
2016-09-27T08:23:21.859Z,6048
2016-09-27T08:24:21.880Z,6040
2016-09-27T08:25:21.893Z,6044
2016-09-27T08:26:21.941Z,6052
2016-09-27T08:27:21.927Z,6052
2016-09-27T08:28:21.958Z,6060
2016-09-27T08:29:21.972Z,6080
2016-09-27T08:30:22.335Z,6088
2016-09-27T08:31:22.345Z,6084
2016-09-27T08:32:22.082Z,6116
2016-09-27T08:33:22.071Z,6132
2016-09-27T08:34:22.089Z,6132
2016-09-27T08:35:22.100Z,6128
2016-09-27T08:36:22.129Z,6112
2016-09-27T08:37:22.150Z,6132
2016-09-27T08:38:22.180Z,6136
2016-09-27T08:39:22.191Z,6176
2016-09-27T08:40:22.222Z,6156
2016-09-27T08:41:22.231Z,6172
2016-09-27T08:42:22.264Z,6188
2016-09-27T08:43:22.273Z,6200
2016-09-27T08:44:22.312Z,6204
2016-09-27T08:45:22.322Z,6212
2016-09-27T08:46:22.348Z,6204
2016-09-27T08:47:22.431Z,6200
2016-09-27T08:48:22.394Z,6192
2016-09-27T08:49:22.413Z,6176
2016-09-27T08:50:22.446Z,6184
2016-09-27T08:51:22.452Z,6196
2016-09-27T08:52:22.478Z,6196
2016-09-27T08:53:22.492Z,6220
2016-09-27T08:54:22.846Z,6220
2016-09-27T08:55:22.531Z,6236
2016-09-27T08:56:22.566Z,6236
2016-09-27T08:57:22.573Z,6236
2016-09-27T08:58:22.597Z,6236
2016-09-27T08:59:22.625Z,6232
2016-09-27T09:00:22.651Z,6220
2016-09-27T09:01:22.669Z,6232
2016-09-27T09:02:22.695Z,6264
2016-09-27T09:03:22.709Z,6288
2016-09-27T09:04:22.732Z,6308
2016-09-27T09:05:22.751Z,6744
2016-09-27T09:06:22.779Z,6304
2016-09-27T09:07:22.805Z,6308
2016-09-27T09:08:22.819Z,6308
2016-09-27T09:09:22.840Z,6288
2016-09-27T09:10:22.849Z,6288
2016-09-27T09:11:22.876Z,6256
2016-09-27T09:12:22.899Z,6248
2016-09-27T09:13:22.927Z,6240
2016-09-27T09:14:22.944Z,6244
2016-09-27T09:15:22.968Z,6512
2016-09-27T09:16:22.989Z,6540
2016-09-27T09:17:23.022Z,6568
2016-09-27T09:18:23.027Z,6576
2016-09-27T09:19:23.056Z,6588
2016-09-27T09:20:23.092Z,6564
2016-09-27T09:21:23.110Z,6604
2016-09-27T09:22:23.137Z,6588
2016-09-27T09:23:23.144Z,6564
2016-09-27T09:24:23.156Z,6608
2016-09-27T09:25:23.198Z,6492
2016-09-27T09:26:23.211Z,6268
2016-09-27T09:27:23.225Z,6468
2016-09-27T09:28:23.260Z,6512
2016-09-27T09:29:23.272Z,6524
2016-09-27T09:30:23.305Z,6628
2016-09-27T09:31:23.317Z,6704
2016-09-27T09:32:23.342Z,6672
2016-09-27T09:33:23.363Z,6692
2016-09-27T09:34:23.393Z,6704
2016-09-27T09:35:23.420Z,4704
2016-09-27T09:36:23.430Z,6548
2016-09-27T09:37:23.456Z,4812
2016-09-27T09:38:23.477Z,4944
2016-09-27T09:39:23.497Z,4692
2016-09-27T09:40:23.516Z,4716
2016-09-27T09:41:23.532Z,5864
2016-09-27T09:42:23.566Z,4772
2016-09-27T09:43:23.593Z,4728
2016-09-27T09:44:23.596Z,4844
2016-09-27T09:45:23.627Z,4936
2016-09-27T09:46:23.665Z,7236
2016-09-27T09:47:23.667Z,7656
2016-09-27T09:48:23.700Z,7596
2016-09-27T09:49:23.721Z,7124
2016-09-27T09:50:23.742Z,5648
2016-09-27T09:51:23.761Z,5224
2016-09-27T09:52:23.780Z,7456
2016-09-27T09:53:23.805Z,7692
2016-09-27T09:54:23.827Z,7664
2016-09-27T09:55:23.844Z,7776
2016-09-27T09:56:23.871Z,7820
2016-09-27T09:57:23.890Z,6872
2016-09-27T09:58:23.917Z,5284
2016-09-27T09:59:23.937Z,5192
2016-09-27T10:00:23.963Z,5148
2016-09-27T10:01:23.981Z,5140
2016-09-27T10:02:24.001Z,5208
2016-09-27T10:03:24.025Z,5132
2016-09-27T10:04:24.059Z,5152
2016-09-27T10:05:24.063Z,5272
2016-09-27T10:06:24.421Z,6924
2016-09-27T10:07:24.141Z,5400
2016-09-27T10:08:24.162Z,5572
2016-09-27T10:09:24.170Z,5844
2016-09-27T10:10:24.204Z,6404
2016-09-27T10:11:24.216Z,5960
2016-09-27T10:12:24.252Z,5712
2016-09-27T10:13:24.247Z,5600
2016-09-27T10:14:24.287Z,5596
2016-09-27T10:15:24.309Z,5396
2016-09-27T10:16:24.313Z,5252
2016-09-27T10:17:24.357Z,5112
2016-09-27T10:18:24.730Z,5008
2016-09-27T10:19:24.402Z,4956
2016-09-27T10:20:24.406Z,4944
2016-09-27T10:21:24.436Z,5284
2016-09-27T10:22:24.500Z,5112
2016-09-27T10:23:24.514Z,5236
2016-09-27T10:24:24.554Z,5936
2016-09-27T10:25:24.552Z,6328
2016-09-27T10:26:24.597Z,6596
2016-09-27T10:27:24.611Z,7092
2016-09-27T10:28:24.967Z,8464
2016-09-27T10:29:24.633Z,8848
2016-09-27T10:30:24.636Z,8924
2016-09-27T10:31:24.638Z,8788
2016-09-27T10:32:24.728Z,8812
2016-09-27T10:33:24.710Z,8844
2016-09-27T10:34:24.739Z,8868
2016-09-27T10:35:24.782Z,6988
2016-09-27T10:36:24.772Z,6676
2016-09-27T10:37:24.781Z,6356
2016-09-27T10:38:24.822Z,6272
2016-09-27T10:39:24.837Z,6184
2016-09-27T10:40:24.851Z,6380
2016-09-27T10:41:24.869Z,6156
2016-09-27T10:42:24.913Z,6216
2016-09-27T10:43:24.921Z,6464
2016-09-27T10:44:24.954Z,6752
2016-09-27T10:45:24.960Z,6832
2016-09-27T10:46:24.993Z,6936
2016-09-27T10:47:25.013Z,7004
2016-09-27T10:48:25.029Z,7060
2016-09-27T10:49:25.061Z,7116
2016-09-27T10:50:25.091Z,7268
2016-09-27T10:51:25.098Z,7788
2016-09-27T10:52:25.136Z,7260
2016-09-27T10:53:25.147Z,7928
2016-09-27T10:54:25.171Z,7568
2016-09-27T10:55:25.190Z,7368
2016-09-27T10:56:25.224Z,7432
2016-09-27T10:57:25.238Z,7784
2016-09-27T10:58:25.268Z,7756
2016-09-27T10:59:25.276Z,8992
2016-09-27T11:00:25.302Z,8284
2016-09-27T11:01:25.332Z,10192
2016-09-27T11:02:25.362Z,8328
2016-09-27T11:03:25.375Z,8076
2016-09-27T11:04:25.404Z,7940
2016-09-27T11:05:25.419Z,7988
2016-09-27T11:06:25.453Z,8228
2016-09-27T11:07:25.477Z,8372
2016-09-27T11:08:25.486Z,7680
2016-09-27T11:09:25.531Z,7316
2016-09-27T11:10:25.545Z,7084
2016-09-27T11:11:25.566Z,6936
2016-09-27T11:12:25.590Z,6888
2016-09-27T11:13:25.613Z,6704
2016-09-27T11:14:25.636Z,6564
2016-09-27T11:15:25.647Z,6492
2016-09-27T11:16:25.681Z,6504
2016-09-27T11:17:25.699Z,6444
2016-09-27T11:18:25.727Z,6548
2016-09-27T11:19:25.744Z,7636
2016-09-27T11:20:25.772Z,6248
2016-09-27T11:21:25.790Z,5732
2016-09-27T11:22:25.825Z,5296
2016-09-27T11:23:25.845Z,5156
2016-09-27T11:24:25.859Z,6464
2016-09-27T11:25:25.873Z,7636
2016-09-27T11:26:25.910Z,7648
2016-09-27T11:27:25.937Z,7452
2016-09-27T11:28:25.950Z,7352
2016-09-27T11:29:25.976Z,7692
2016-09-27T11:30:26.001Z,6056
2016-09-27T11:31:26.007Z,5528
2016-09-27T11:32:26.057Z,5544
2016-09-27T11:33:26.071Z,5876
2016-09-27T11:34:26.087Z,6852
2016-09-27T11:35:26.115Z,6508
2016-09-27T11:36:26.150Z,7488
2016-09-27T11:37:26.167Z,7852
2016-09-27T11:38:26.175Z,7768
2016-09-27T11:39:26.223Z,7848
2016-09-27T11:40:26.229Z,7856
2016-09-27T11:41:26.246Z,7796
2016-09-27T11:42:26.279Z,7684
2016-09-27T11:43:26.289Z,7528
2016-09-27T11:45:26.357Z,5036
2016-09-27T11:46:26.372Z,4836
2016-09-27T11:47:26.390Z,4920
2016-09-27T11:48:26.418Z,5036
2016-09-27T11:49:26.441Z,4964
2016-09-27T11:50:26.456Z,4832
2016-09-27T11:51:26.480Z,5008
2016-09-27T11:52:26.502Z,5232
2016-09-27T11:53:26.513Z,6780
2016-09-27T11:54:26.551Z,6896
2016-09-27T11:55:26.577Z,7168
2016-09-27T11:56:26.598Z,7528
2016-09-27T11:57:26.622Z,7568
2016-09-27T11:58:26.643Z,7584
2016-09-27T11:59:26.661Z,7248
2016-09-27T12:00:26.694Z,7656
2016-09-27T12:01:26.716Z,7560
2016-09-27T12:02:26.752Z,7700
2016-09-27T12:03:26.779Z,7824
2016-09-27T12:04:26.797Z,8028
2016-09-27T12:05:26.819Z,8112
2016-09-27T12:06:26.855Z,8180
2016-09-27T12:07:26.875Z,8276
2016-09-27T12:08:26.886Z,8344
2016-09-27T12:09:26.962Z,8244
2016-09-27T12:10:26.923Z,8352
2016-09-27T12:11:26.963Z,8420
2016-09-27T12:12:26.986Z,8428
2016-09-27T12:13:27.323Z,8492
2016-09-27T12:14:27.027Z,8592
2016-09-27T12:15:27.032Z,8672
2016-09-27T12:16:27.068Z,8740
2016-09-27T12:17:27.091Z,8784
2016-09-27T12:18:27.112Z,8824
2016-09-27T12:19:27.148Z,8860
2016-09-27T12:20:27.164Z,8952
2016-09-27T12:21:27.199Z,9056
2016-09-27T12:22:27.223Z,9124
2016-09-27T12:23:27.226Z,9156
2016-09-27T12:24:27.262Z,9148
2016-09-27T12:25:27.295Z,9132
2016-09-27T12:26:27.311Z,9024
2016-09-27T12:27:27.340Z,8908
2016-09-27T12:28:27.352Z,9004
2016-09-27T12:29:27.384Z,9188
2016-09-27T12:30:27.387Z,9252
2016-09-27T12:31:27.425Z,9360
2016-09-27T12:32:27.451Z,9480
2016-09-27T12:33:27.482Z,9476
2016-09-27T12:34:27.494Z,9512
2016-09-27T12:35:27.526Z,9556
2016-09-27T12:36:27.541Z,9536
2016-09-27T12:37:27.577Z,9548
2016-09-27T12:38:27.605Z,9636
2016-09-27T12:39:27.653Z,9756
2016-09-27T12:40:27.638Z,9664
2016-09-27T12:41:27.683Z,9600
2016-09-27T12:42:27.677Z,6796
2016-09-27T12:43:27.715Z,9372
2016-09-27T12:44:28.073Z,9448
2016-09-27T12:45:28.184Z,9308
2016-09-27T12:46:28.037Z,9196
2016-09-27T12:47:28.016Z,8824
2016-09-27T12:48:28.052Z,6628
2016-09-27T12:49:28.121Z,7168
2016-09-27T12:50:28.172Z,5804
2016-09-27T12:51:28.120Z,7288
2016-09-27T12:52:28.183Z,5864
2016-09-27T12:53:28.287Z,6048
2016-09-27T12:54:28.379Z,7264
2016-09-27T12:55:28.300Z,9000
2016-09-27T12:56:28.338Z,7288
2016-09-27T12:57:28.387Z,7704
2016-09-27T12:58:28.400Z,6600
2016-09-27T12:59:28.469Z,6324
2016-09-27T13:00:28.441Z,6124
2016-09-27T13:01:28.459Z,5996
2016-09-27T13:02:28.439Z,5888
2016-09-27T13:03:28.427Z,5928
2016-09-27T13:04:28.485Z,8456
2016-09-27T13:05:28.315Z,5844
2016-09-27T13:06:28.318Z,8188
2016-09-27T13:07:28.364Z,8144
2016-09-27T13:08:28.392Z,7900
2016-09-27T13:09:28.425Z,7856
2016-09-27T13:10:28.465Z,7772
2016-09-27T13:11:28.503Z,7688
2016-09-27T13:12:28.464Z,7556
2016-09-27T13:13:28.535Z,7460
2016-09-27T13:14:28.625Z,4944
2016-09-27T13:15:28.613Z,6140
2016-09-27T13:16:28.584Z,5708
2016-09-27T13:17:28.672Z,4624
2016-09-27T13:18:28.661Z,4688
2016-09-27T13:19:28.724Z,4724
2016-09-27T13:20:28.761Z,4576
2016-09-27T13:21:28.702Z,4444
2016-09-27T13:22:28.734Z,4364
2016-09-27T13:23:28.802Z,4384
2016-09-27T13:24:28.876Z,4448
2016-09-27T13:25:28.896Z,6104
2016-09-27T13:26:28.936Z,5572
2016-09-27T13:27:28.909Z,5768
2016-09-27T13:28:28.952Z,4848
2016-09-27T13:29:29.038Z,6844
2016-09-27T13:30:29.041Z,6948
2016-09-27T13:31:29.156Z,7008
2016-09-27T13:32:29.106Z,7128
2016-09-27T13:33:29.129Z,7212
2016-09-27T13:34:29.242Z,7224
2016-09-27T13:35:29.264Z,7096
2016-09-27T13:36:29.275Z,7032
2016-09-27T13:37:29.308Z,7012
2016-09-27T13:38:29.349Z,7004
2016-09-27T13:39:29.413Z,7008
2016-09-27T13:40:29.423Z,6996
2016-09-27T13:41:29.433Z,7048
2016-09-27T13:42:29.456Z,6880
2016-09-27T13:43:29.455Z,6832
2016-09-27T13:44:29.545Z,6764
2016-09-27T13:45:29.531Z,6744
2016-09-27T13:46:29.533Z,6796
2016-09-27T13:47:29.559Z,6848
2016-09-27T13:48:29.588Z,6788
2016-09-27T13:49:29.648Z,6748
2016-09-27T13:50:29.640Z,6768
2016-09-27T13:51:29.651Z,6804
2016-09-27T13:52:29.684Z,6876